createdAt,value
2023-03-22T00:01:02.520Z,7.96
2023-03-22T00:04:18.704Z,7.86
2023-03-22T00:07:35.129Z,7.94
2023-03-22T00:10:52.047Z,8.03
2023-03-22T00:14:08.197Z,7.96
2023-03-22T00:17:26.050Z,7.90
2023-03-22T00:20:42.320Z,7.86
2023-03-22T00:23:58.349Z,7.83
2023-03-22T00:27:15.047Z,7.72
2023-03-22T00:30:31.214Z,7.72
2023-03-22T00:33:47.297Z,7.58
2023-03-22T00:37:03.291Z,7.74
2023-03-22T00:40:22.466Z,7.84
2023-03-22T00:43:38.562Z,7.83
2023-03-22T00:46:54.567Z,7.65
2023-03-22T00:50:12.742Z,7.54
2023-03-22T00:53:29.951Z,7.40
2023-03-22T00:56:46.301Z,7.35
2023-03-22T01:00:05.580Z,7.37
2023-03-22T01:03:22.692Z,7.28
2023-03-22T01:06:39.858Z,7.20
2023-03-22T01:09:56.193Z,7.13
2023-03-22T01:13:13.161Z,7.20
2023-03-22T01:16:29.280Z,7.19
2023-03-22T01:19:46.165Z,7.15
2023-03-22T01:23:02.389Z,7.14
2023-03-22T01:26:18.837Z,7.13
2023-03-22T01:29:36.619Z,6.95
2023-03-22T01:32:52.828Z,6.71
2023-03-22T01:36:09.165Z,6.75
2023-03-22T01:39:25.216Z,6.88
2023-03-22T01:42:43.100Z,6.86
2023-03-22T01:46:01.628Z,6.84
2023-03-22T01:49:22.747Z,6.93
2023-03-22T01:52:39.613Z,6.88
2023-03-22T01:55:59.462Z,6.86
2023-03-22T01:59:23.532Z,6.80
2023-03-22T02:03:01.446Z,6.82
2023-03-22T02:06:19.428Z,6.79
2023-03-22T02:09:39.985Z,6.75
2023-03-22T02:13:11.627Z,6.57
2023-03-22T02:16:39.493Z,6.55
2023-03-22T02:20:49.723Z,6.54
2023-03-22T02:24:43.976Z,6.60
2023-03-22T02:28:22.698Z,6.68
2023-03-22T02:32:18.836Z,6.63
2023-03-22T02:35:53.941Z,6.47
2023-03-22T02:39:32.768Z,6.57
2023-03-22T02:42:59.182Z,6.64
2023-03-22T02:46:19.957Z,6.68
2023-03-22T02:49:41.642Z,6.35
2023-03-22T02:53:01.504Z,6.07
2023-03-22T02:56:22.364Z,6.10
2023-03-22T02:59:41.819Z,6.15
2023-03-22T03:03:00.552Z,6.13
2023-03-22T03:06:20.928Z,5.95
2023-03-22T03:09:39.475Z,5.78
2023-03-22T03:12:55.765Z,5.61
2023-03-22T03:16:18.417Z,5.71
2023-03-22T03:19:40.541Z,5.66
2023-03-22T03:23:08.051Z,5.41
2023-03-22T03:26:30.362Z,5.30
2023-03-22T03:29:53.616Z,5.40
2023-03-22T03:33:14.654Z,5.30
2023-03-22T03:36:33.076Z,5.18
2023-03-22T03:39:54.317Z,5.13
2023-03-22T03:43:12.453Z,5.02
2023-03-22T03:46:29.964Z,4.94
2023-03-22T03:49:47.121Z,4.91
2023-03-22T03:53:04.093Z,4.84
2023-03-22T03:56:20.449Z,4.76
2023-03-22T03:59:36.964Z,4.67
2023-03-22T04:02:55.236Z,4.58
2023-03-22T04:06:29.552Z,4.58
2023-03-22T04:09:48.752Z,4.64
2023-03-22T04:13:04.563Z,4.57
2023-03-22T04:16:20.987Z,4.61
2023-03-22T04:19:37.391Z,4.51
2023-03-22T04:22:54.824Z,4.49
2023-03-22T04:26:12.756Z,4.40
2023-03-22T04:29:32.990Z,4.35
2023-03-22T04:32:52.056Z,4.20
2023-03-22T04:36:11.055Z,4.19
2023-03-22T04:39:31.707Z,4.23
2023-03-22T04:42:50.369Z,4.24
2023-03-22T04:46:13.355Z,4.03
2023-03-22T04:49:38.113Z,4.19
2023-03-22T04:52:54.334Z,4.26
2023-03-22T04:56:10.845Z,4.26
2023-03-22T04:59:27.472Z,4.33
2023-03-22T05:02:44.456Z,4.33
2023-03-22T05:06:08.630Z,4.22
2023-03-22T05:09:29.869Z,4.08
2023-03-22T05:12:46.235Z,3.91
2023-03-22T05:16:06.887Z,4.01
2023-03-22T05:19:25.195Z,4.07
2023-03-22T05:22:41.570Z,4.03
2023-03-22T05:26:02.785Z,4.09
2023-03-22T05:29:20.701Z,4.15
2023-03-22T05:32:48.486Z,4.26
2023-03-22T05:36:09.870Z,4.32
2023-03-22T05:39:27.507Z,4.46
2023-03-22T05:42:44.422Z,4.62
2023-03-22T05:46:14.487Z,4.54
2023-03-22T05:49:32.525Z,4.72
2023-03-22T05:52:50.070Z,4.80
2023-03-22T05:56:20.948Z,4.92
2023-03-22T05:59:38.258Z,5.03
2023-03-22T06:02:57.495Z,4.97
2023-03-22T06:06:16.740Z,5.16
2023-03-22T06:09:34.957Z,5.24
2023-03-22T06:12:52.756Z,5.40
2023-03-22T06:16:15.371Z,5.54
2023-03-22T06:19:30.604Z,5.61
2023-03-22T06:22:48.835Z,5.73
2023-03-22T06:26:05.763Z,5.82
2023-03-22T06:29:23.165Z,5.98
2023-03-22T06:32:40.677Z,6.09
2023-03-22T06:35:57.093Z,6.20
2023-03-22T06:39:15.209Z,6.27
2023-03-22T06:42:34.469Z,6.33
2023-03-22T06:45:53.270Z,6.36
2023-03-22T06:49:11.425Z,6.44
2023-03-22T06:52:27.836Z,6.52
2023-03-22T06:55:44.044Z,6.59
2023-03-22T06:59:02.510Z,6.28
2023-03-22T07:02:21.961Z,6.51
2023-03-22T07:05:46.143Z,6.65
2023-03-22T07:09:02.647Z,6.74
2023-03-22T07:12:20.484Z,6.83
2023-03-22T07:15:37.351Z,6.87
2023-03-22T07:18:56.786Z,6.93
2023-03-22T07:22:16.254Z,7.04
2023-03-22T07:25:34.477Z,7.15
2023-03-22T07:29:01.168Z,7.20
2023-03-22T07:32:19.163Z,7.10
2023-03-22T07:35:40.602Z,7.13
2023-03-22T07:38:58.403Z,7.27
2023-03-22T07:42:14.728Z,7.42
2023-03-22T07:45:31.464Z,7.52
2023-03-22T07:48:58.956Z,7.65
2023-03-22T08:07:44.200Z,10.03
2023-03-22T08:14:55.020Z,11.20
2023-03-22T08:18:13.387Z,11.62
2023-03-22T08:21:30.843Z,11.55
2023-03-22T08:24:48.999Z,11.88
2023-03-22T08:28:09.495Z,11.76
2023-03-22T08:31:27.285Z,11.79
2023-03-22T08:34:46.719Z,11.86
2023-03-22T08:38:05.253Z,11.83
2023-03-22T08:41:24.441Z,12.00
2023-03-22T08:44:41.071Z,12.03
2023-03-22T08:47:57.887Z,12.11
2023-03-22T08:51:18.924Z,12.03
2023-03-22T08:54:37.291Z,12.06
2023-03-22T08:57:54.526Z,11.98
2023-03-22T09:01:23.388Z,12.08
2023-03-22T09:04:42.985Z,12.03
2023-03-22T09:08:07.657Z,12.02
2023-03-22T09:11:27.466Z,12.10
2023-03-22T09:14:44.119Z,12.20
2023-03-22T09:18:03.292Z,12.07
2023-03-22T09:21:20.318Z,12.06
2023-03-22T09:24:40.670Z,12.08
2023-03-22T09:27:59.448Z,12.10
2023-03-22T09:31:20.413Z,11.94
2023-03-22T09:34:37.506Z,11.96
2023-03-22T09:37:56.831Z,11.91
2023-03-22T09:41:18.931Z,11.90
2023-03-22T09:44:39.780Z,11.78
2023-03-22T09:48:02.186Z,11.86
2023-03-22T09:51:31.646Z,11.85
2023-03-22T09:54:53.206Z,11.92
2023-03-22T09:58:15.554Z,12.03
2023-03-22T10:01:38.212Z,12.05
2023-03-22T10:05:02.247Z,12.16
2023-03-22T10:08:47.675Z,12.29
2023-03-22T10:12:09.719Z,12.44
2023-03-22T10:15:32.388Z,12.70
2023-03-22T10:18:52.507Z,12.80
2023-03-22T10:22:12.196Z,13.06
2023-03-22T10:25:33.916Z,13.09
2023-03-22T10:28:53.712Z,13.35
2023-03-22T10:32:21.191Z,13.13
2023-03-22T10:35:38.973Z,13.31
2023-03-22T10:39:00.433Z,13.46
2023-03-22T10:42:20.742Z,13.57
2023-03-22T10:45:40.159Z,13.70
2023-03-22T10:48:59.691Z,13.86
2023-03-22T10:52:26.695Z,13.96
2023-03-22T10:55:48.518Z,14.05
2023-03-22T10:59:05.524Z,14.07
2023-03-22T11:02:33.520Z,14.19
2023-03-22T11:05:50.141Z,14.30
2023-03-22T11:09:10.082Z,14.43
2023-03-22T11:12:26.849Z,14.48
2023-03-22T11:15:46.545Z,14.63
2023-03-22T11:19:06.903Z,14.72
2023-03-22T11:22:32.294Z,14.85
2023-03-22T11:25:55.135Z,15.10
2023-03-22T11:29:22.396Z,15.29
2023-03-22T11:32:42.814Z,15.28
2023-03-22T11:36:05.014Z,15.40
2023-03-22T11:39:22.617Z,15.47
2023-03-22T11:42:41.115Z,15.55
2023-03-22T11:46:01.064Z,15.62
2023-03-22T11:49:22.717Z,15.62
2023-03-22T11:52:38.970Z,15.59
2023-03-22T11:56:00.705Z,15.61
2023-03-22T11:59:21.009Z,15.64
2023-03-22T12:02:40.636Z,15.64
2023-03-22T12:06:01.469Z,15.67
2023-03-22T12:09:31.047Z,15.74
2023-03-22T12:12:51.597Z,15.79
2023-03-22T12:16:11.511Z,15.85
2023-03-22T12:19:47.831Z,15.90
2023-03-22T12:23:04.697Z,15.89
2023-03-22T12:26:27.142Z,15.89
2023-03-22T12:29:44.721Z,15.96
2023-03-22T12:33:07.236Z,15.99
2023-03-22T12:36:28.390Z,15.97
2023-03-22T12:39:51.653Z,16.03
2023-03-22T12:43:18.242Z,16.07
2023-03-22T12:46:39.482Z,16.08
2023-03-22T12:50:02.318Z,16.12
2023-03-22T12:53:23.370Z,16.12
2023-03-22T12:56:45.292Z,16.14
2023-03-22T13:00:06.743Z,16.16
2023-03-22T13:03:36.038Z,16.18
2023-03-22T13:07:16.354Z,16.23
2023-03-22T13:11:14.069Z,16.22
2023-03-22T13:15:05.043Z,16.23
2023-03-22T13:19:02.742Z,16.24
2023-03-22T13:22:33.990Z,16.33
2023-03-22T13:26:06.764Z,16.39
2023-03-22T13:29:30.672Z,16.34
2023-03-22T13:32:53.871Z,16.38
2023-03-22T13:36:16.441Z,16.32
2023-03-22T13:39:35.306Z,16.42
2023-03-22T13:42:52.190Z,16.42
2023-03-22T13:46:31.613Z,16.41
2023-03-22T13:50:00.755Z,16.41
2023-03-22T13:53:28.558Z,16.43
2023-03-22T13:57:00.926Z,16.39
2023-03-22T14:00:45.798Z,16.39
2023-03-22T14:04:05.167Z,16.37
2023-03-22T14:07:28.494Z,16.39
2023-03-22T14:10:49.105Z,16.32
2023-03-22T14:14:11.098Z,16.24
2023-03-22T14:17:37.314Z,16.19
2023-03-22T14:20:56.659Z,16.21
2023-03-22T14:47:27.191Z,15.89
2023-03-22T14:50:51.691Z,15.94
2023-03-22T14:54:15.361Z,15.95
2023-03-22T14:57:36.887Z,15.98
2023-03-22T15:00:53.145Z,16.00
2023-03-22T15:04:14.692Z,15.97
2023-03-22T15:07:31.417Z,15.95
2023-03-22T15:10:50.872Z,15.89
2023-03-22T15:14:05.252Z,15.83
2023-03-22T15:17:24.308Z,15.77
2023-03-22T15:20:44.830Z,15.70
2023-03-22T15:24:06.112Z,15.67
2023-03-22T15:27:25.201Z,15.67
2023-03-22T15:30:42.572Z,15.69
2023-03-22T15:34:01.886Z,15.69
2023-03-22T15:37:27.855Z,15.66
2023-03-22T15:40:52.253Z,15.59
2023-03-22T15:44:24.486Z,15.54
2023-03-22T15:47:53.617Z,15.49
2023-03-22T15:51:10.358Z,15.43
2023-03-22T15:54:31.479Z,15.39
2023-03-22T15:57:53.646Z,15.32
2023-03-22T16:01:24.073Z,15.28
2023-03-22T16:04:44.135Z,15.24
2023-03-22T16:08:04.010Z,15.22
2023-03-22T16:11:19.657Z,15.16
2023-03-22T16:14:40.351Z,15.10
2023-03-22T16:17:58.005Z,15.07
2023-03-22T16:21:18.653Z,15.00
2023-03-22T16:24:35.171Z,14.95
2023-03-22T16:27:52.344Z,14.90
2023-03-22T16:31:13.400Z,14.85
2023-03-22T16:34:31.332Z,14.79
2023-03-22T16:37:57.610Z,14.74
2023-03-22T16:41:23.608Z,14.67
2023-03-22T16:44:47.411Z,14.62
2023-03-22T16:48:04.967Z,14.53
2023-03-22T16:51:34.476Z,14.45
2023-03-22T16:54:54.210Z,14.34
2023-03-22T16:58:13.074Z,14.23
2023-03-22T17:01:30.751Z,14.13
2023-03-22T17:04:47.413Z,14.01
2023-03-22T17:08:05.756Z,13.93
2023-03-22T17:11:30.476Z,13.86
2023-03-22T17:14:47.650Z,13.79
2023-03-22T17:18:05.433Z,13.75
2023-03-22T17:21:25.382Z,13.65
2023-03-22T17:24:43.291Z,13.52
2023-03-22T17:28:02.100Z,13.42
2023-03-22T17:31:22.814Z,13.38
2023-03-22T17:34:40.363Z,13.42
2023-03-22T17:41:14.938Z,13.16
2023-03-22T17:44:32.299Z,13.12
2023-03-22T17:47:49.399Z,13.17
2023-03-22T17:51:06.352Z,13.17
2023-03-22T17:54:56.957Z,13.15
2023-03-22T17:58:21.326Z,13.11
2023-03-22T18:00:59.818Z,13.16
2023-03-22T18:04:17.318Z,13.21
2023-03-22T18:07:33.879Z,13.23
2023-03-22T18:10:50.689Z,13.15
2023-03-22T18:14:21.181Z,13.11
2023-03-22T18:17:26.361Z,13.08
2023-03-22T18:24:01.638Z,13.03
2023-03-22T18:27:18.409Z,12.97
2023-03-22T18:30:35.642Z,12.93
2023-03-22T18:33:54.656Z,12.89
2023-03-22T18:37:14.112Z,12.89
2023-03-22T18:41:03.821Z,12.83
2023-03-22T18:43:50.642Z,12.83
2023-03-22T18:47:07.401Z,12.77
2023-03-22T18:50:24.708Z,12.72
2023-03-22T18:53:44.144Z,12.73
2023-03-22T18:57:01.305Z,12.73
2023-03-22T19:00:21.977Z,12.71
2023-03-22T19:03:38.570Z,12.66
2023-03-22T19:06:58.272Z,12.64
2023-03-22T19:10:18.586Z,12.68
2023-03-22T19:13:40.178Z,12.66
2023-03-22T19:16:54.001Z,12.61
2023-03-22T19:20:14.581Z,12.63
2023-03-22T19:23:31.813Z,12.61
2023-03-22T19:26:58.427Z,12.62
2023-03-22T19:30:09.496Z,12.63
2023-03-22T19:33:41.876Z,12.63
2023-03-22T19:36:44.995Z,12.61
2023-03-22T19:40:45.253Z,12.56
2023-03-22T19:43:21.927Z,12.57
2023-03-22T19:46:40.524Z,12.60
2023-03-22T19:49:57.552Z,12.57
2023-03-22T19:53:45.709Z,12.64
2023-03-22T19:56:33.608Z,12.70
2023-03-22T20:00:19.322Z,12.72
2023-03-22T20:03:09.972Z,12.74
2023-03-22T20:06:29.374Z,12.77
2023-03-22T20:09:43.726Z,12.77
2023-03-22T20:13:01.384Z,12.80
2023-03-22T20:16:19.000Z,12.82
2023-03-22T20:19:37.711Z,12.87
2023-03-22T20:22:55.680Z,12.91
2023-03-22T20:26:13.201Z,12.93
2023-03-22T20:29:30.329Z,12.97
2023-03-22T20:32:48.827Z,12.95
2023-03-22T20:36:08.510Z,12.92
2023-03-22T20:39:26.765Z,12.90
2023-03-22T20:42:43.800Z,12.90
2023-03-22T20:46:01.702Z,12.90
2023-03-22T20:49:18.186Z,12.90
2023-03-22T20:52:35.116Z,12.90
2023-03-22T20:55:58.497Z,12.91
2023-03-22T20:59:16.166Z,12.88
2023-03-22T21:02:32.979Z,12.89
2023-03-22T21:05:50.396Z,12.87
2023-03-22T21:09:07.542Z,12.87
2023-03-22T21:12:24.009Z,12.74
2023-03-22T21:15:40.930Z,12.64
2023-03-22T21:18:57.962Z,12.46
2023-03-22T21:22:15.240Z,12.36
2023-03-22T21:25:32.116Z,12.36
2023-03-22T21:28:48.503Z,12.39
2023-03-22T21:32:05.091Z,12.37
2023-03-22T21:35:22.397Z,12.38
2023-03-22T21:38:39.916Z,12.37
2023-03-22T21:41:56.164Z,12.34
2023-03-22T21:45:15.711Z,12.30
2023-03-22T21:48:34.039Z,12.27
2023-03-22T21:51:50.558Z,12.26
2023-03-22T21:55:07.330Z,12.21
2023-03-22T21:58:25.300Z,12.26
2023-03-22T22:01:42.432Z,12.22
2023-03-22T22:04:59.851Z,12.20
2023-03-22T22:08:16.634Z,12.19
2023-03-22T22:11:33.941Z,12.15
2023-03-22T22:14:50.543Z,12.18
2023-03-22T22:18:07.726Z,12.11
2023-03-22T22:21:27.774Z,12.06
2023-03-22T22:24:44.058Z,12.11
2023-03-22T22:28:00.317Z,12.06
2023-03-22T22:31:24.429Z,12.05
2023-03-22T22:34:40.876Z,12.01
2023-03-22T22:37:57.677Z,11.91
2023-03-22T22:41:15.807Z,11.94
2023-03-22T22:44:32.326Z,11.92
2023-03-22T22:47:48.588Z,11.93
2023-03-22T22:51:14.606Z,11.93
2023-03-22T22:54:30.838Z,11.93
2023-03-22T22:57:48.180Z,11.81
2023-03-22T23:01:04.976Z,11.88
2023-03-22T23:04:22.554Z,11.84
2023-03-22T23:07:41.151Z,11.80
2023-03-22T23:11:01.891Z,11.87
2023-03-22T23:14:18.351Z,11.86
2023-03-22T23:17:35.603Z,11.84
2023-03-22T23:20:52.291Z,11.84
2023-03-22T23:24:09.863Z,11.84
2023-03-22T23:27:26.754Z,11.86
2023-03-22T23:30:42.975Z,11.86
2023-03-22T23:34:01.667Z,11.83
2023-03-22T23:37:18.682Z,11.86
2023-03-22T23:40:35.767Z,11.79
2023-03-22T23:43:52.394Z,11.75
2023-03-22T23:47:08.631Z,11.68
2023-03-22T23:50:26.256Z,11.20
2023-03-22T23:53:43.444Z,11.16
2023-03-22T23:56:59.991Z,11.20
